Terminal Aerodrome Forecast
Issued by NWS Jackson, MS

Home | Current Version | Previous Version | Text Only | Print | Product List | Glossary On
Versions: 1 2 3 4 5 6 7 8 9 10 11 12 13
160
FTUS44 KJAN 241734
TAFGLH
TAF
KGLH 241734Z 2418/2518 20011KT P6SM FEW050 SCT250
     FM250000 18006KT P6SM FEW050 SCT150 BKN250
     FM251000 18006KT 5SM BR BKN020 BKN200
     FM251500 19011KT P6SM VCSH SCT025 BKN035=

USA.gov is the U.S. government's official web portal to all federal, state and local government web resources and services.